createdAt,value
2024-04-19T00:07:13.189Z,6.54
2024-04-19T00:38:55.635Z,6.62
2024-04-19T00:41:57.833Z,6.58
2024-04-19T00:44:59.942Z,6.58
2024-04-19T00:48:07.271Z,6.67
2024-04-19T00:51:27.832Z,6.71
2024-04-19T00:54:30.000Z,6.71
2024-04-19T00:57:32.143Z,6.72
2024-04-19T01:00:34.311Z,6.74
2024-04-19T01:03:36.865Z,6.77
2024-04-19T01:06:38.971Z,6.68
2024-04-19T01:09:41.016Z,6.62
2024-04-19T01:12:43.244Z,6.70
2024-04-19T01:15:45.484Z,6.84
2024-04-19T01:18:50.873Z,6.93
2024-04-19T01:21:53.008Z,6.95
2024-04-19T01:24:55.063Z,6.94
2024-04-19T01:27:57.080Z,7.01
2024-04-19T01:30:59.093Z,6.90
2024-04-19T01:34:01.472Z,6.89
2024-04-19T01:37:04.662Z,6.82
2024-04-19T01:40:10.915Z,6.80
2024-04-19T01:43:12.930Z,6.78
2024-04-19T01:46:15.075Z,6.81
2024-04-19T01:49:17.117Z,6.74
2024-04-19T01:52:19.192Z,6.69
2024-04-19T01:55:21.274Z,6.74
2024-04-19T01:58:23.874Z,6.74
2024-04-19T02:01:26.393Z,6.61
2024-04-19T02:04:29.080Z,6.57
2024-04-19T02:07:31.195Z,6.64
2024-04-19T02:10:36.672Z,6.74
2024-04-19T02:13:38.732Z,6.71
2024-04-19T02:16:41.145Z,6.74
2024-04-19T02:19:44.812Z,6.70
2024-04-19T02:22:46.915Z,6.72
2024-04-19T02:25:48.984Z,6.60
2024-04-19T02:29:09.656Z,6.59
2024-04-19T02:32:11.729Z,6.54
2024-04-19T02:35:13.820Z,6.43
2024-04-19T02:38:16.027Z,6.14
2024-04-19T02:41:18.073Z,6.13
2024-04-19T02:44:20.235Z,5.98
2024-04-19T02:47:22.406Z,6.07
2024-04-19T02:50:24.539Z,5.93
2024-04-19T02:53:26.637Z,5.71
2024-04-19T02:56:28.795Z,5.73
2024-04-19T02:59:30.981Z,5.93
2024-04-19T03:02:33.084Z,5.85
2024-04-19T03:05:35.232Z,5.92
2024-04-19T03:08:37.305Z,6.01
2024-04-19T03:11:39.350Z,5.95
2024-04-19T03:14:41.372Z,5.90
2024-04-19T03:17:43.520Z,5.85
2024-04-19T03:20:45.588Z,5.88
2024-04-19T03:23:47.678Z,5.86
2024-04-19T03:26:49.892Z,5.64
2024-04-19T03:29:58.735Z,5.69
2024-04-19T03:33:00.828Z,5.51
2024-04-19T03:36:05.943Z,5.20
2024-04-19T03:39:10.289Z,5.06
2024-04-19T03:42:13.941Z,5.30
2024-04-19T03:45:35.896Z,5.23
2024-04-19T03:48:38.167Z,4.82
2024-04-19T03:51:40.251Z,4.53
2024-04-19T03:54:44.969Z,4.46
2024-04-19T03:57:49.736Z,4.43
2024-04-19T04:00:51.999Z,4.29
2024-04-19T04:03:55.219Z,4.09
2024-04-19T04:06:57.389Z,4.05
2024-04-19T04:09:59.911Z,4.04
2024-04-19T04:13:08.505Z,4.12
2024-04-19T04:16:10.598Z,4.14
2024-04-19T04:19:12.738Z,3.97
2024-04-19T04:22:14.871Z,3.99
2024-04-19T04:25:17.043Z,4.04
2024-04-19T04:28:19.166Z,3.98
2024-04-19T04:31:26.655Z,4.12
2024-04-19T04:34:28.791Z,4.13
2024-04-19T04:37:35.397Z,4.18
2024-04-19T04:40:38.027Z,4.14
2024-04-19T04:43:41.181Z,4.17
2024-04-19T04:46:43.447Z,4.12
2024-04-19T04:49:45.559Z,4.15
2024-04-19T04:52:47.972Z,4.21
2024-04-19T04:55:51.041Z,4.35
2024-04-19T04:58:53.103Z,4.23
2024-04-19T05:01:55.142Z,4.17
2024-04-19T05:04:58.207Z,4.19
2024-04-19T05:08:01.526Z,4.02
2024-04-19T05:11:06.023Z,4.18
2024-04-19T05:14:09.307Z,4.14
2024-04-19T05:17:11.424Z,4.22
2024-04-19T05:20:13.546Z,4.15
2024-04-19T05:23:15.632Z,4.19
2024-04-19T05:26:17.690Z,4.28
2024-04-19T05:29:19.769Z,4.28
2024-04-19T05:32:22.697Z,4.42
2024-04-19T05:35:25.922Z,4.58
2024-04-19T05:38:27.974Z,4.71
2024-04-19T05:41:30.152Z,4.50
2024-04-19T05:44:32.912Z,4.47
2024-04-19T05:47:35.103Z,4.41
2024-04-19T05:50:37.321Z,4.56
2024-04-19T05:53:39.349Z,4.68
2024-04-19T05:56:41.490Z,4.74
2024-04-19T05:59:43.837Z,4.59
2024-04-19T06:02:45.905Z,4.69
2024-04-19T06:05:47.950Z,4.80
2024-04-19T06:08:52.184Z,5.02
2024-04-19T06:11:54.301Z,4.95
2024-04-19T06:14:56.378Z,4.99
